Latest Weather Observations for Hopetoun Airport

IDV60801

Issued at 6:35 pm EST Wednesday 20 August 2014 (issued every 30 minutes, with the page automatically refreshed every 10 minutes)

About weather observations | Map of weather stations | Latest weather observations for VIC | Other Formats
Station Details ID: 077010 Name: HOPETOUN AIRPORT Lat: -35.72 Lon: 142.36 Height: 77.3 m
Data from the previous 72 hours. | See also: Recent months at Hopetoun Airport
Date/Time
EST
Temp
°C
App
Temp
°C
Dew
Point
Rel
Hum
%
Delta-T
°C
Wind Press
QNH
hPa
Press
MSL
hPa
Rain
since 9 am
mm
Dir
 
Spd
km/h
Gust
km/h
Spd
kts
Gust
kts
20/06:30pm 10.5 7.7 3.1 60 3.2 S 7 11 4 6 1026.6 1026.7 0.0
20/06:00pm 12.3 8.8 3.3 54 4.0 S 11 19 6 10 1026.4 1026.5 0.0
20/05:30pm 13.7 10.1 3.2 49 4.7 S 11 17 6 9 1026.0 1026.1 0.0
20/05:00pm 14.2 9.9 3.1 47 5.0 S 15 24 8 13 1025.9 1026.0 0.0
20/04:30pm 14.4 9.7 3.2 47 5.1 S 17 22 9 12 1025.7 1025.8 0.0
20/04:00pm 14.6 10.6 3.1 46 5.2 S 13 19 7 10 1025.6 1025.7 0.0
20/03:30pm 14.8 11.2 3.0 45 5.3 S 11 24 6 13 1025.6 1025.7 0.0
20/03:00pm 15.0 11.4 3.2 45 5.3 S 11 19 6 10 1025.5 1025.6 0.0
20/02:30pm 14.8 10.8 3.0 45 5.3 S 13 22 7 12 1025.6 1025.7 0.0
20/02:00pm 14.4 10.8 3.2 47 5.0 S 11 20 6 11 1025.6 1025.7 0.0
20/01:30pm 14.1 10.2 3.3 48 4.9 SSE 13 22 7 12 1025.8 1025.9 0.0
20/01:00pm 14.0 10.4 3.2 48 4.8 S 11 17 6 9 1026.2 1026.3 0.0
20/12:30pm 13.4 9.5 3.5 51 4.5 S 13 22 7 12 1026.6 1026.7 0.0
20/12:00pm 13.5 10.0 3.6 51 4.4 S 11 19 6 10 1027.0 1027.1 0.0
20/11:30am 12.4 9.2 3.1 53 4.1 ESE 9 15 5 8 1027.2 1027.4 0.0
20/11:00am 11.9 7.9 2.9 54 3.9 SSE 13 20 7 11 1027.5 1027.7 0.0
20/10:30am 11.7 6.6 3.2 56 3.7 SSE 19 24 10 13 1027.6 1027.8 0.0
20/10:00am 11.1 5.8 3.2 58 3.4 SE 20 26 11 14 1027.8 1028.0 0.0
20/09:30am 9.9 5.2 3.2 63 2.9 SSE 17 22 9 12 1027.7 1027.9 0.0
20/09:00am 8.4 4.0 2.8 68 2.4 SSE 15 20 8 11 1027.5 1027.7 0.0
20/08:30am 6.1 2.4 2.4 77 1.5 S 11 17 6 9 1027.3 1027.5 0.0
20/08:00am 3.1 0.6 1.5 89 0.6 S 4 7 2 4 1027.1 1027.3 0.0
20/07:30am 1.4 -1.9 -0.1 90 0.5 S 7 9 4 5 1026.7 1026.8 0.0
20/07:00am 1.8 -1.4 0.6 92 0.4 S 7 9 4 5 1026.4 1026.5 0.0
20/06:30am 1.7 -2.0 0.2 90 0.5 S 9 9 5 5 1026.0 1026.1 0.0
20/06:00am 4.3 0.5 2.0 85 0.9 S 11 15 6 8 1025.8 1025.9 0.0
20/05:30am 4.6 0.9 2.5 86 0.9 S 11 15 6 8 1025.6 1025.7 0.0
20/05:00am 4.8 0.8 2.8 87 0.8 SSE 13 15 7 8 1025.3 1025.4 0.0
20/04:30am 5.3 1.0 3.0 85 1.0 SSE 15 20 8 11 1025.1 1025.2 0.0
20/04:00am 5.4 0.7 3.3 86 0.9 SSE 17 22 9 12 1024.8 1024.9 0.0
20/03:30am 5.8 0.8 3.5 85 1.0 SSE 19 22 10 12 1024.8 1024.9 0.0
20/03:00am 6.0 1.4 3.5 84 1.0 SSE 17 22 9 12 1025.1 1025.2 0.0
20/02:30am 6.3 1.7 3.6 83 1.1 SSE 17 22 9 12 1025.1 1025.2 0.0
20/02:00am 6.7 2.2 4.0 83 1.2 SSE 17 22 9 12 1025.3 1025.4 0.0
20/01:30am 6.4 2.2 3.9 84 1.1 SSE 15 20 8 11 1025.3 1025.4 0.0
20/01:00am 5.9 2.0 3.6 85 1.0 SSE 13 17 7 9 1025.4 1025.5 0.0
20/12:30am 4.5 1.5 2.0 84 1.0 SSE 7 11 4 6 1025.4 1025.5 0.0
20/12:00am 5.3 2.6 2.5 82 1.1 S 6 6 3 3 1025.5 1025.6 0.0
 
Date/Time
EST
Temp
°C
App
Temp
°C
Dew
Point
Rel
Hum
%
Delta-T
°C
Wind Press
QNH
hPa
Press
MSL
hPa
Rain
since 9 am
mm
Dir
 
Spd
km/h
Gust
km/h
Spd
kts
Gust
kts
19/11:30pm 5.5 2.3 3.0 84 1.0 SSW 9 9 5 5 1025.6 1025.7 0.0
19/11:00pm 5.8 3.0 3.3 84 1.0 SSW 7 7 4 4 1025.4 1025.5 0.0
19/10:30pm 4.7 2.3 2.2 84 1.0 SW 4 6 2 3 1025.5 1025.6 0.0
19/10:00pm 5.9 3.6 2.9 81 1.2 S 4 4 2 2 1025.4 1025.5 0.0
19/09:30pm 7.1 5.3 3.2 76 1.6 SSE 2 4 1 2 1025.3 1025.4 0.0
19/09:00pm 8.4 5.8 4.0 74 1.9 SSE 7 9 4 5 1025.3 1025.4 0.0
19/08:30pm 9.1 6.1 4.3 72 2.1 SSE 9 13 5 7 1025.1 1025.2 0.0
19/08:00pm 10.1 6.4 4.7 69 2.4 SSE 13 17 7 9 1024.9 1025.0 0.0
19/07:30pm 11.3 7.3 5.0 65 2.9 SSE 15 20 8 11 1024.6 1024.7 0.0
19/07:00pm 12.4 8.9 5.3 62 3.3 S 13 20 7 11 1024.2 1024.3 0.0
19/06:30pm 13.4 10.3 5.6 59 3.7 S 11 15 6 8 1023.8 1023.9 0.0
19/06:00pm 14.1 10.3 5.7 57 4.0 S 15 20 8 11 1023.5 1023.6 0.0
19/05:30pm 14.5 10.3 5.6 55 4.2 S 17 24 9 13 1023.2 1023.3 0.0
19/05:00pm 14.9 10.6 5.4 53 4.5 S 17 24 9 13 1023.0 1023.1 0.0
19/04:30pm 15.4 10.9 5.9 53 4.6 S 19 26 10 14 1022.9 1023.0 0.0
19/04:00pm 15.7 10.5 5.6 51 4.8 S 22 32 12 17 1022.7 1022.8 0.0
19/03:30pm 16.2 11.6 5.8 50 5.0 S 19 28 10 15 1022.6 1022.7 0.0
19/03:00pm 16.2 11.5 6.1 51 4.9 S 20 30 11 16 1022.5 1022.6 0.0
19/02:30pm 16.5 11.9 6.3 51 5.0 S 20 28 11 15 1022.5 1022.6 0.0
19/02:00pm 16.1 12.3 6.0 51 4.9 S 15 28 8 15 1022.4 1022.5 0.0
19/01:30pm 17.1 12.6 6.3 49 5.3 SSE 19 24 10 13 1022.6 1022.7 0.0
19/01:00pm 16.6 12.1 6.1 50 5.1 SSE 19 30 10 16 1022.8 1022.9 0.0
19/12:30pm 15.8 11.7 6.0 52 4.7 SSE 17 24 9 13 1023.3 1023.4 0.0
19/12:00pm 15.7 11.3 6.4 54 4.5 SSE 19 24 10 13 1023.7 1023.8 0.0
19/11:30am 15.5 11.5 6.5 55 4.4 SSE 17 24 9 13 1024.0 1024.1 0.0
19/11:00am 14.3 9.6 6.2 58 3.9 SSE 20 28 11 15 1024.1 1024.2 0.0
19/10:30am 13.4 8.4 6.3 62 3.4 SSE 22 32 12 17 1024.3 1024.4 0.0
19/10:00am 13.1 8.0 6.2 63 3.3 SSE 22 28 12 15 1024.2 1024.3 0.0
19/09:30am 11.7 6.7 6.4 70 2.5 SSE 22 28 12 15 1024.2 1024.3 0.0
19/09:00am 10.7 6.3 6.5 75 2.0 S 19 24 10 13 1024.1 1024.2 0.0
19/08:30am 10.0 5.9 6.3 78 1.7 S 17 28 9 15 1023.9 1024.0 0.0
19/08:00am 9.3 5.9 6.0 80 1.5 S 13 22 7 12 1023.7 1023.8 0.0
19/07:30am 8.6 5.2 5.9 83 1.2 S 13 19 7 10 1023.3 1023.4 0.0
19/07:00am 8.6 5.2 5.9 83 1.2 S 13 17 7 9 1023.0 1023.1 0.0
19/06:30am 8.7 5.3 5.8 82 1.3 S 13 19 7 10 1022.7 1022.8 0.0
19/06:00am 8.8 5.4 5.7 81 1.4 S 13 19 7 10 1022.5 1022.6 0.0
19/05:30am 8.9 4.7 5.6 80 1.5 S 17 24 9 13 1022.2 1022.3 0.0
19/05:00am 8.7 4.9 5.6 81 1.4 SSW 15 24 8 13 1022.0 1022.1 0.0
19/04:30am 8.8 4.9 5.5 80 1.5 S 15 22 8 12 1021.9 1022.0 0.0
19/04:00am 9.2 5.0 5.6 78 1.6 S 17 24 9 13 1021.9 1022.0 0.0
19/03:30am 9.1 4.9 5.5 78 1.6 S 17 24 9 13 1022.0 1022.1 0.0
19/03:00am 9.4 5.5 5.4 76 1.8 S 15 26 8 14 1022.2 1022.3 0.0
19/02:30am 9.6 5.7 5.4 75 1.9 S 15 22 8 12 1022.5 1022.6 0.0
19/02:00am 9.6 5.8 5.6 76 1.8 S 15 22 8 12 1022.4 1022.5 0.0
19/01:30am 9.7 6.3 5.7 76 1.8 S 13 20 7 11 1022.5 1022.6 0.0
19/01:00am 9.8 6.4 5.8 76 1.8 S 13 20 7 11 1022.7 1022.8 0.0
19/12:30am 9.9 6.1 5.9 76 1.8 S 15 20 8 11 1022.7 1022.8 0.0
19/12:00am 10.1 6.0 6.1 76 1.8 S 17 22 9 12 1022.8 1022.9 0.0
 
Date/Time
EST
Temp
°C
App
Temp
°C
Dew
Point
Rel
Hum
%
Delta-T
°C
Wind Press
QNH
hPa
Press
MSL
hPa
Rain
since 9 am
mm
Dir
 
Spd
km/h
Gust
km/h
Spd
kts
Gust
kts
18/11:30pm 9.8 5.6 5.8 76 1.8 S 17 24 9 13 1022.8 1022.9 0.0
18/11:00pm 10.3 6.1 5.7 73 2.1 S 17 22 9 12 1022.8 1022.9 0.0
18/10:30pm 10.6 5.9 6.0 73 2.1 S 20 28 11 15 1022.7 1022.8 0.0
18/10:00pm 10.8 6.7 6.0 72 2.2 S 17 22 9 12 1022.7 1022.8 0.0
18/09:30pm 11.2 7.0 5.7 69 2.6 S 17 26 9 14 1022.5 1022.6 0.0
18/09:00pm 11.6 7.8 5.7 67 2.7 S 15 22 8 12 1022.3 1022.4 0.0
18/08:30pm 11.9 8.0 5.5 65 3.0 S 15 19 8 10 1022.1 1022.2 0.0
18/08:00pm 12.2 8.7 5.4 63 3.2 S 13 19 7 10 1021.9 1022.0 0.0
18/07:30pm 12.5 8.2 5.4 62 3.3 S 17 22 9 12 1021.6 1021.7 0.0
18/07:00pm 12.8 8.5 5.2 60 3.5 S 17 22 9 12 1021.3 1021.4 0.0
18/06:30pm 13.0 8.9 4.2 55 4.0 S 15 20 8 11 1020.9 1021.0 0.0
18/06:00pm 13.5 9.0 4.4 54 4.2 S 17 24 9 13 1020.6 1020.7 0.0
18/05:30pm 13.6 9.4 3.9 52 4.4 S 15 24 8 13 1020.4 1020.5 0.0
18/05:00pm 13.9 8.9 3.7 50 4.6 S 19 26 10 14 1019.9 1020.0 0.0
18/04:30pm 14.5 8.5 3.6 48 5.0 S 24 33 13 18 1019.8 1019.9 0.0
18/04:00pm 14.7 8.8 3.8 48 5.0 S 24 35 13 19 1019.8 1019.9 0.0
18/03:30pm 15.4 10.3 3.9 46 5.3 SSW 20 24 11 13 1019.5 1019.6 0.0
18/03:00pm 15.5 9.9 3.6 45 5.5 S 22 35 12 19 1019.4 1019.5 0.0
18/02:30pm 15.7 9.4 3.8 45 5.5 S 26 33 14 18 1019.4 1019.5 0.0
18/02:00pm 15.9 9.8 4.6 47 5.3 S 26 37 14 20 1019.4 1019.5 0.0
18/01:30pm 16.0 10.1 4.1 45 5.6 S 24 35 13 19 1019.7 1019.8 0.0
18/01:00pm 14.8 7.7 3.3 46 5.2 S 30 43 16 23 1020.1 1020.2 0.0
18/12:30pm 14.8 8.6 4.2 49 4.9 S 26 39 14 21 1020.4 1020.5 0.0
18/12:00pm 14.2 7.2 3.9 50 4.7 S 30 39 16 21 1020.9 1021.0 0.0
18/11:30am 13.4 5.9 3.2 50 4.6 S 32 44 17 24 1021.2 1021.3 0.0
18/11:00am 13.1 6.7 3.2 51 4.4 S 26 39 14 21 1021.5 1021.6 0.0
18/10:30am 11.9 4.4 3.2 55 3.8 S 32 46 17 25 1021.6 1021.7 0.0
18/10:00am 11.2 4.1 3.7 60 3.3 S 30 39 16 21 1021.6 1021.7 0.0
18/09:30am 10.0 4.4 3.7 65 2.8 S 22 30 12 16 1021.6 1021.7 0.0
18/09:00am 8.5 3.2 3.1 69 2.3 SSW 20 32 11 17 1021.5 1021.6 0.0
18/08:30am 6.8 1.4 2.5 74 1.8 SSW 20 28 11 15 1021.3 1021.4 0.0
18/08:00am 4.5 -0.8 1.7 82 1.1 SSW 19 26 10 14 1021.2 1021.3 0.0
18/07:30am 3.7 -1.6 1.6 86 0.8 SSW 19 26 10 14 1021.0 1021.1 0.0
18/07:00am 3.4 -1.6 1.3 86 0.8 SSW 17 20 9 11 1020.8 1020.9 0.0
18/06:30am 5.0 -0.3 1.7 79 1.3 S 19 26 10 14 1020.4 1020.5 0.0
18/06:00am 4.1 -0.5 1.6 84 1.0 SSW 15 20 8 11 1020.1 1020.2 0.0
18/05:30am 3.9 -0.7 1.3 83 1.0 SSW 15 22 8 12 1020.0 1020.1 0.0
18/05:00am 4.2 0.0 1.4 82 1.1 SSW 13 17 7 9 1019.9 1020.0 0.0
18/04:30am 4.9 0.3 1.6 79 1.3 SSW 15 20 8 11 1019.7 1019.8 0.0
18/04:00am 4.8 0.2 1.7 80 1.2 S 15 20 8 11 1019.5 1019.6 0.0
18/03:30am 4.9 0.7 1.7 80 1.3 S 13 20 7 11 1019.6 1019.7 0.0
18/03:00am 5.2 0.3 2.0 80 1.3 SSW 17 20 9 11 1019.7 1019.8 0.0
18/02:30am 5.4 0.6 2.4 81 1.2 SSW 17 22 9 12 1019.9 1020.0 0.0
18/02:00am 5.3 0.5 2.5 82 1.1 SSW 17 22 9 12 1020.0 1020.1 0.0
18/01:30am 5.2 -0.2 2.7 84 1.0 SSW 20 26 11 14 1020.0 1020.1 0.0
18/01:00am 5.1 -0.2 2.8 85 0.9 SSW 20 26 11 14 1019.9 1020.0 0.0
18/12:30am 5.2 0.5 3.2 87 0.8 SSW 17 20 9 11 1019.8 1019.9 0.0
18/12:00am 6.0 1.7 3.5 84 1.0 SSW 15 20 8 11 1019.8 1019.9 0.0
 
Date/Time
EST
Temp
°C
App
Temp
°C
Dew
Point
Rel
Hum
%
Delta-T
°C
Wind Press
QNH
hPa
Press
MSL
hPa
Rain
since 9 am
mm
Dir
 
Spd
km/h
Gust
km/h
Spd
kts
Gust
kts
17/11:30pm 6.9 2.7 3.9 81 1.3 SSW 15 24 8 13 1019.8 1019.9 0.0
17/11:00pm 7.8 2.9 4.0 77 1.6 S 19 28 10 15 1019.7 1019.8 0.0
17/10:30pm 8.6 3.8 4.4 75 1.9 S 19 28 10 15 1019.6 1019.7 0.0
17/10:00pm 8.8 4.4 4.6 75 1.9 S 17 22 9 12 1019.5 1019.6 0.0
17/09:30pm 9.1 4.7 4.7 74 2.0 S 17 24 9 13 1019.7 1019.8 0.0
17/09:00pm 9.3 4.5 4.5 72 2.1 S 19 26 10 14 1019.6 1019.7 0.0
17/08:30pm 9.6 4.8 4.6 71 2.2 S 19 26 10 14 1019.4 1019.5 0.0
17/08:00pm 10.2 5.2 4.8 69 2.4 S 20 28 11 15 1019.0 1019.1 0.0
17/07:30pm 10.5 6.0 4.2 65 2.8 S 17 24 9 13 1018.6 1018.7 0.0
17/07:00pm 10.7 6.1 3.5 61 3.2 S 17 26 9 14 1018.2 1018.3 0.0

Other Formats:

Comma delimited format used in spreadsheet applications
http://www.bom.gov.au/fwo/IDV60801/IDV60801.94838.axf

JavaScript Object Notation format (JSON) in row-major order
http://www.bom.gov.au/fwo/IDV60801/IDV60801.94838.json